Terminal Aerodrome Forecast
Issued by NWS

Home | Current Version | Previous Version | Text Only | Print | Product List | Glossary On
Versions: 1 2 3 4 5 6 7 8 9 10 11 12 13 14 15 16
000
FTUS46 KMFR 251140
TAFRBG
TAF
KRBG 251140Z 2512/2612 00000KT P6SM -SHRA FEW020 BKN025 OVC040
     FM252100 VRB03KT P6SM VCSH SCT025 OVC040
     FM260300 00000KT P6SM SCT015 OVC025
     FM260900 00000KT P6SM OVC015=

USA.gov is the U.S. government's official web portal to all federal, state and local government web resources and services.